createdAt,value
2022-12-22T00:01:43.563Z,99997.31
2022-12-22T00:04:07.152Z,99992.91
2022-12-22T00:06:29.795Z,99994.66
2022-12-22T00:08:49.902Z,99991.13
2022-12-22T00:11:11.203Z,99978.28
2022-12-22T00:13:33.487Z,99974.81
2022-12-22T00:15:54.373Z,99983.47
2022-12-22T00:18:14.575Z,99979.97
2022-12-22T00:20:37.485Z,99985.94
2022-12-22T00:22:59.131Z,99982.41
2022-12-22T00:25:19.900Z,99968.53
2022-12-22T00:27:46.742Z,99973.75
2022-12-22T00:30:07.858Z,99971.19
2022-12-22T00:32:32.734Z,99964.25
2022-12-22T00:34:59.419Z,99958.97
2022-12-22T00:37:19.923Z,99953.75
2022-12-22T00:39:42.952Z,99954.69
2022-12-22T00:42:03.294Z,99950.38
2022-12-22T00:44:23.397Z,99940.84
2022-12-22T00:46:43.764Z,99937.34
2022-12-22T00:49:05.014Z,99939.16
2022-12-22T00:51:25.800Z,99933.94
2022-12-22T00:53:46.296Z,99933.97
2022-12-22T00:56:08.167Z,99938.28
2022-12-22T00:58:34.793Z,99932.16
2022-12-22T01:00:55.176Z,99932.22
2022-12-22T01:03:15.616Z,99932.13
2022-12-22T01:05:35.911Z,99927.78
2022-12-22T01:07:56.242Z,99930.41
2022-12-22T01:10:16.728Z,99930.34
2022-12-22T01:12:42.830Z,99924.31
2022-12-22T01:15:03.132Z,99924.31
2022-12-22T01:17:23.514Z,99929.50
2022-12-22T01:19:43.851Z,99922.56
2022-12-22T01:22:04.084Z,99924.31
2022-12-22T01:24:29.733Z,99919.13
2022-12-22T01:26:50.426Z,99918.22
2022-12-22T01:29:11.951Z,99908.72
2022-12-22T01:31:37.006Z,99909.59
2022-12-22T01:33:57.253Z,99918.22
2022-12-22T01:36:17.424Z,99910.41
2022-12-22T01:38:38.044Z,99903.47
2022-12-22T01:40:58.385Z,99893.16
2022-12-22T01:43:18.626Z,99887.06
2022-12-22T01:45:43.638Z,99898.28
2022-12-22T01:48:03.985Z,99892.25
2022-12-22T01:50:25.685Z,99889.66
2022-12-22T01:52:51.703Z,99884.47
2022-12-22T01:55:14.911Z,99888.81
2022-12-22T01:57:35.045Z,99882.81
2022-12-22T01:59:57.116Z,99893.13
2022-12-22T02:02:23.322Z,99881.88
2022-12-22T02:04:48.643Z,99886.09
2022-12-22T02:07:15.262Z,99875.81
2022-12-22T02:09:51.688Z,99882.69
2022-12-22T02:12:21.031Z,99870.59
2022-12-22T02:14:49.294Z,99872.38
2022-12-22T02:17:22.886Z,99860.25
2022-12-22T02:19:59.218Z,99860.25
2022-12-22T02:22:28.622Z,99861.94
2022-12-22T02:24:54.832Z,99855.91
2022-12-22T02:27:19.327Z,99850.81
2022-12-22T02:29:45.826Z,99849.88
2022-12-22T02:32:06.756Z,99850.72
2022-12-22T02:34:31.796Z,99836.91
2022-12-22T02:37:12.395Z,99847.25
2022-12-22T02:39:42.919Z,99836.00
2022-12-22T02:42:10.574Z,99834.28
2022-12-22T02:44:44.149Z,99827.41
2022-12-22T02:47:13.933Z,99830.84
2022-12-22T02:49:40.001Z,99834.28
2022-12-22T02:52:05.406Z,99823.06
2022-12-22T02:54:26.662Z,99817.88
2022-12-22T02:56:46.886Z,99811.81
2022-12-22T02:59:07.033Z,99802.28
2022-12-22T03:01:29.305Z,99790.16
2022-12-22T03:03:50.128Z,99796.25
2022-12-22T03:06:10.248Z,99792.75
2022-12-22T03:08:30.443Z,99783.22
2022-12-22T03:10:50.670Z,99776.31
2022-12-22T03:13:11.044Z,99778.88
2022-12-22T03:15:31.793Z,99771.13
2022-12-22T03:17:53.249Z,99771.13
2022-12-22T03:20:13.835Z,99782.34
2022-12-22T03:22:33.952Z,99771.13
2022-12-22T03:24:54.264Z,99785.78
2022-12-22T03:26:57.149Z,99778.81
2022-12-22T03:29:00.228Z,99771.94
2022-12-22T03:31:05.769Z,99769.34
2022-12-22T03:33:09.979Z,99771.94
2022-12-22T03:35:12.767Z,99767.66
2022-12-22T03:37:15.596Z,99755.53
2022-12-22T03:39:18.387Z,99756.38
2022-12-22T03:41:41.266Z,99754.63
2022-12-22T03:44:01.947Z,99736.44
2022-12-22T03:46:22.868Z,99742.53
2022-12-22T03:48:27.067Z,99743.38
2022-12-22T03:50:29.923Z,99743.38
2022-12-22T03:52:32.712Z,99752.91
2022-12-22T03:54:35.603Z,99737.34
2022-12-22T03:56:39.196Z,99742.53
2022-12-22T03:58:42.147Z,99734.72
2022-12-22T04:00:45.048Z,99734.75
2022-12-22T04:02:48.040Z,99729.59
2022-12-22T04:04:52.345Z,99718.31
2022-12-22T04:06:55.497Z,99720.94
2022-12-22T04:08:58.369Z,99718.31
2022-12-22T04:11:18.776Z,99726.09
2022-12-22T04:13:21.681Z,99724.38
2022-12-22T04:15:26.284Z,99721.78
2022-12-22T04:17:29.092Z,99731.31
2022-12-22T04:19:32.057Z,99732.19
2022-12-22T04:21:36.291Z,99722.69
2022-12-22T04:23:39.115Z,99714.06
2022-12-22T04:25:41.891Z,99711.47
2022-12-22T04:27:44.668Z,99709.69
2022-12-22T04:29:47.400Z,99709.69
2022-12-22T04:31:50.245Z,99698.41
2022-12-22T04:33:53.206Z,99700.16
2022-12-22T04:35:56.153Z,99709.72
2022-12-22T04:38:00.228Z,99711.41
2022-12-22T04:40:03.460Z,99699.31
2022-12-22T04:42:06.374Z,99702.75
2022-12-22T04:44:40.156Z,99692.38
2022-12-22T04:46:43.006Z,99694.06
2022-12-22T04:48:45.782Z,99682.06
2022-12-22T04:50:51.594Z,99687.19
2022-12-22T04:52:55.014Z,99685.47
2022-12-22T04:54:59.143Z,99675.03
2022-12-22T04:57:02.480Z,99676.78
2022-12-22T04:59:05.316Z,99690.63
2022-12-22T05:01:16.256Z,99672.50
2022-12-22T05:03:19.283Z,99677.72
2022-12-22T05:05:22.209Z,99673.34
2022-12-22T05:07:24.927Z,99676.78
2022-12-22T05:09:27.744Z,99670.69
2022-12-22T05:11:31.852Z,99679.38
2022-12-22T05:13:34.767Z,99665.50
2022-12-22T05:15:37.801Z,99678.47
2022-12-22T05:17:40.598Z,99678.53
2022-12-22T05:19:43.423Z,99664.72
2022-12-22T05:21:46.448Z,99668.13
2022-12-22T05:23:49.573Z,99670.72
2022-12-22T05:25:52.379Z,99670.75
2022-12-22T05:27:56.597Z,99669.88
2022-12-22T05:29:59.374Z,99669.00
2022-12-22T05:32:02.293Z,99668.19
2022-12-22T05:34:05.131Z,99665.56
2022-12-22T05:36:08.564Z,99661.22
2022-12-22T05:38:11.359Z,99667.25
2022-12-22T05:40:15.788Z,99659.50
2022-12-22T05:42:35.600Z,99668.16
2022-12-22T05:44:39.770Z,99663.00
2022-12-22T05:46:42.577Z,99669.94
2022-12-22T05:48:45.540Z,99670.84
2022-12-22T05:50:48.336Z,99668.19
2022-12-22T05:52:51.653Z,99654.34
2022-12-22T05:54:54.947Z,99650.91
2022-12-22T05:56:57.774Z,99647.44
2022-12-22T05:59:00.629Z,99654.34
2022-12-22T06:01:05.435Z,99656.09
2022-12-22T06:03:08.136Z,99647.41
2022-12-22T06:05:12.457Z,99661.28
2022-12-22T06:07:16.426Z,99650.91
2022-12-22T06:09:19.260Z,99662.16
2022-12-22T06:11:22.123Z,99654.38
2022-12-22T06:13:25.145Z,99656.09
2022-12-22T06:15:27.979Z,99660.44
2022-12-22T06:17:32.170Z,99661.28
2022-12-22T06:19:35.106Z,99648.28
2022-12-22T06:21:37.870Z,99653.44
2022-12-22T06:23:40.660Z,99646.53
2022-12-22T06:25:43.549Z,99653.44
2022-12-22T06:27:46.900Z,99661.25
2022-12-22T06:29:49.667Z,99639.63
2022-12-22T06:31:52.465Z,99643.97
2022-12-22T06:33:56.599Z,99653.50
2022-12-22T06:35:59.781Z,99655.25
2022-12-22T06:38:02.584Z,99646.56
2022-12-22T06:40:06.872Z,99647.44
2022-12-22T06:42:27.720Z,99655.19
2022-12-22T06:44:31.223Z,99644.81
2022-12-22T06:46:34.064Z,99644.81
2022-12-22T06:48:36.872Z,99656.09
2022-12-22T06:50:41.158Z,99656.94
2022-12-22T06:52:44.597Z,99647.44
2022-12-22T06:54:47.411Z,99652.63
2022-12-22T06:56:50.137Z,99648.28
2022-12-22T06:58:52.937Z,99638.78
2022-12-22T07:00:57.067Z,99644.84
2022-12-22T07:03:00.229Z,99643.94
2022-12-22T07:05:03.416Z,99656.94
2022-12-22T07:07:07.632Z,99655.25
2022-12-22T07:09:10.509Z,99663.00
2022-12-22T07:11:14.453Z,99655.25
2022-12-22T07:13:20.360Z,99669.09
2022-12-22T07:15:23.364Z,99663.03
2022-12-22T07:17:26.107Z,99667.38
2022-12-22T07:19:28.894Z,99677.75
2022-12-22T07:21:31.728Z,99680.34
2022-12-22T07:23:36.898Z,99679.47
2022-12-22T07:25:39.773Z,99683.81
2022-12-22T07:27:43.212Z,99677.78
2022-12-22T07:29:46.025Z,99677.78
2022-12-22T07:31:49.201Z,99690.72
2022-12-22T07:33:52.585Z,99690.78
2022-12-22T07:36:03.912Z,99685.53
2022-12-22T07:38:06.699Z,99697.69
2022-12-22T07:40:11.942Z,99689.88
2022-12-22T07:42:32.203Z,99695.94
2022-12-22T07:44:34.972Z,99702.88
2022-12-22T07:46:39.830Z,99695.09
2022-12-22T07:49:00.248Z,99696.81
2022-12-22T07:51:05.147Z,99689.88
2022-12-22T07:53:08.030Z,99694.22
2022-12-22T07:55:12.145Z,99680.38
2022-12-22T07:57:14.943Z,99685.56
2022-12-22T07:59:17.735Z,99689.88
2022-12-22T08:01:20.869Z,99690.78
2022-12-22T08:03:23.922Z,99695.13
2022-12-22T08:05:27.126Z,99679.53
2022-12-22T08:07:29.959Z,99689.03
2022-12-22T08:09:32.768Z,99684.72
2022-12-22T08:11:37.191Z,99684.75
2022-12-22T08:13:39.991Z,99684.72
2022-12-22T08:15:42.798Z,99689.06
2022-12-22T08:17:45.697Z,99696.84
2022-12-22T08:19:49.508Z,99688.19
2022-12-22T08:21:53.325Z,99695.13
2022-12-22T08:23:56.340Z,99694.28
2022-12-22T08:26:05.480Z,99695.13
2022-12-22T08:28:09.871Z,99693.38
2022-12-22T08:30:13.852Z,99701.19
2022-12-22T08:32:17.273Z,99692.53
2022-12-22T08:34:20.181Z,99702.94
2022-12-22T08:36:23.318Z,99697.72
2022-12-22T08:38:26.141Z,99693.38
2022-12-22T08:40:32.331Z,99697.72
2022-12-22T08:42:35.124Z,99690.81
2022-12-22T08:44:39.888Z,99691.66
2022-12-22T08:46:42.716Z,99696.84
2022-12-22T08:48:46.703Z,99690.78
2022-12-22T08:50:49.570Z,99686.44
2022-12-22T08:52:52.385Z,99691.66
2022-12-22T08:54:55.174Z,99694.25
2022-12-22T08:56:59.067Z,99693.41
2022-12-22T08:59:05.065Z,99693.41
2022-12-22T09:01:09.335Z,99692.53
2022-12-22T09:03:12.232Z,99691.63
2022-12-22T09:05:15.231Z,99697.72
2022-12-22T09:07:22.897Z,99695.13
2022-12-22T09:09:26.281Z,99695.97
2022-12-22T09:11:30.003Z,99694.28
2022-12-22T09:13:32.847Z,99693.38
2022-12-22T09:15:35.696Z,99696.84
2022-12-22T09:17:39.876Z,99699.47
2022-12-22T09:19:42.869Z,99696.84
2022-12-22T09:21:45.951Z,99697.72
2022-12-22T09:23:49.415Z,99707.28
2022-12-22T09:25:52.566Z,99701.16
2022-12-22T09:27:55.353Z,99699.44
2022-12-22T09:29:58.140Z,99702.91
2022-12-22T09:32:00.956Z,99708.13
2022-12-22T09:34:05.189Z,99708.13
2022-12-22T09:36:09.889Z,99717.66
2022-12-22T09:38:12.694Z,99699.44
2022-12-22T09:40:15.579Z,99710.72
2022-12-22T09:42:21.393Z,99715.94
2022-12-22T09:44:27.241Z,99727.22
2022-12-22T09:46:32.480Z,99729.81
2022-12-22T09:48:38.261Z,99728.94
2022-12-22T09:50:43.176Z,99732.41
2022-12-22T09:52:48.821Z,99740.22
2022-12-22T09:54:51.775Z,99743.66
2022-12-22T09:56:54.654Z,99749.75
2022-12-22T09:58:58.141Z,99749.75
2022-12-22T10:01:10.876Z,99756.66
2022-12-22T10:03:25.663Z,99762.75
2022-12-22T10:05:39.210Z,99758.41
2022-12-22T10:07:44.466Z,99758.41
2022-12-22T10:09:50.790Z,99770.56
2022-12-22T10:11:56.140Z,99762.75
2022-12-22T10:13:58.982Z,99761.00
2022-12-22T10:16:01.780Z,99761.03
2022-12-22T10:18:12.700Z,99753.22
2022-12-22T10:20:25.740Z,99767.97
2022-12-22T10:22:31.832Z,99772.28
2022-12-22T10:24:36.901Z,99772.31
2022-12-22T10:26:39.738Z,99781.84
2022-12-22T10:28:46.608Z,99780.13
2022-12-22T10:30:49.496Z,99774.03
2022-12-22T10:33:07.447Z,99780.13
2022-12-22T10:35:10.445Z,99785.31
2022-12-22T10:37:13.317Z,99781.88
2022-12-22T10:39:22.249Z,99796.59
2022-12-22T10:41:29.748Z,99790.53
2022-12-22T10:43:36.006Z,99780.97
2022-12-22T10:45:38.791Z,99786.19
2022-12-22T10:47:49.392Z,99782.72
2022-12-22T10:52:12.461Z,99798.31
2022-12-22T10:54:30.530Z,99797.47
2022-12-22T10:56:35.508Z,99800.06
2022-12-22T10:58:49.885Z,99800.91
2022-12-22T11:01:03.250Z,99801.81
2022-12-22T11:03:08.281Z,99805.25
2022-12-22T11:05:12.560Z,99820.88
2022-12-22T11:07:16.055Z,99814.81
2022-12-22T11:09:35.533Z,99823.47
2022-12-22T11:11:45.677Z,99826.09
2022-12-22T11:14:03.613Z,99829.59
2022-12-22T11:16:19.074Z,99839.09
2022-12-22T11:18:45.603Z,99843.47
2022-12-22T11:20:57.793Z,99848.66
2022-12-22T11:23:04.474Z,99851.25
2022-12-22T11:25:23.627Z,99853.00
2022-12-22T11:27:46.005Z,99859.06
2022-12-22T11:30:04.005Z,99856.47
2022-12-22T11:32:23.994Z,99866.03
2022-12-22T11:34:43.069Z,99869.50
2022-12-22T11:37:01.432Z,99873.81
2022-12-22T11:39:09.606Z,99876.41
2022-12-22T11:41:26.185Z,99868.59
2022-12-22T11:43:40.724Z,99875.56
2022-12-22T11:45:53.174Z,99873.81
2022-12-22T11:48:07.911Z,99881.66
2022-12-22T11:50:58.993Z,99889.44
2022-12-22T11:53:05.457Z,99899.84
2022-12-22T11:55:31.082Z,99890.28
2022-12-22T11:57:40.219Z,99895.53
2022-12-22T11:59:55.074Z,99905.03
2022-12-22T12:02:23.993Z,99902.44
2022-12-22T12:04:44.938Z,99906.78
2022-12-22T12:07:27.593Z,99903.34
2022-12-22T12:09:44.540Z,99907.66
2022-12-22T12:11:54.886Z,99909.38
2022-12-22T12:14:09.740Z,99924.16
2022-12-22T12:16:19.564Z,99925.00
2022-12-22T12:18:45.069Z,99925.88
2022-12-22T12:20:59.191Z,99931.91
2022-12-22T12:23:16.679Z,99933.66
2022-12-22T12:25:29.128Z,99931.97
2022-12-22T12:27:49.862Z,99934.56
2022-12-22T12:30:36.421Z,99942.38
2022-12-22T12:32:32.443Z,99942.38
2022-12-22T12:34:39.294Z,99938.88
2022-12-22T12:36:48.739Z,99944.13
2022-12-22T12:39:09.621Z,99944.13
2022-12-22T12:41:21.716Z,99951.03
2022-12-22T12:43:25.360Z,99950.19
2022-12-22T12:45:36.375Z,99952.78
2022-12-22T12:47:40.526Z,99956.25
2022-12-22T12:49:58.594Z,99959.75
2022-12-22T12:52:02.520Z,99964.97
2022-12-22T12:54:34.902Z,99965.81
2022-12-22T12:56:55.408Z,99967.56
2022-12-22T12:58:58.946Z,99970.16
2022-12-22T13:01:02.697Z,99964.06
2022-12-22T13:03:19.900Z,99967.56
2022-12-22T13:05:36.525Z,99964.97
2022-12-22T13:08:22.679Z,99977.13
2022-12-22T13:10:27.489Z,99975.38
2022-12-22T13:12:40.088Z,99977.97
2022-12-22T13:15:00.285Z,99977.13
2022-12-22T13:17:34.572Z,99986.66
2022-12-22T13:19:39.074Z,99990.09
2022-12-22T13:21:53.911Z,99987.50
2022-12-22T13:26:32.830Z,99997.97
2022-12-22T13:28:37.521Z,99991.91
2022-12-22T13:30:40.867Z,99996.25
2022-12-22T13:32:46.019Z,99991.06
2022-12-22T13:35:29.556Z,99987.59
2022-12-22T13:37:23.321Z,99992.81
2022-12-22T13:39:26.133Z,99986.75
2022-12-22T13:41:31.986Z,99993.69
2022-12-22T13:43:34.909Z,100000.66
2022-12-22T13:45:40.298Z,99998.91
2022-12-22T13:47:44.776Z,100006.72
2022-12-22T13:52:17.311Z,100015.41
2022-12-22T13:54:28.546Z,100027.56
2022-12-22T13:56:38.198Z,100017.16
2022-12-22T13:58:44.943Z,100022.38
2022-12-22T14:01:01.037Z,100026.69
2022-12-22T14:03:08.906Z,100032.78
2022-12-22T14:05:13.913Z,100033.66
2022-12-22T14:07:19.376Z,100038.00
2022-12-22T14:09:24.139Z,100041.47
2022-12-22T14:11:26.973Z,100035.41
2022-12-22T14:13:33.329Z,100039.72
2022-12-22T14:15:36.334Z,100044.09
2022-12-22T14:17:47.813Z,100036.28
2022-12-22T14:19:57.414Z,100050.16
2022-12-22T14:22:05.728Z,100058.84
2022-12-22T14:24:17.272Z,100056.25
2022-12-22T14:26:27.156Z,100056.25
2022-12-22T14:28:35.105Z,100056.25
2022-12-22T14:30:42.551Z,100049.28
2022-12-22T14:32:54.454Z,100058.81
2022-12-22T14:34:58.021Z,100058.81
2022-12-22T14:37:02.258Z,100066.63
2022-12-22T14:39:11.126Z,100068.38
2022-12-22T14:41:39.806Z,100070.97
2022-12-22T14:43:42.778Z,100061.41
2022-12-22T14:45:47.131Z,100062.31
2022-12-22T14:47:50.056Z,100066.66
2022-12-22T14:49:55.060Z,100069.28
2022-12-22T14:52:03.693Z,100061.44
2022-12-22T14:54:08.061Z,100070.16
2022-12-22T14:56:13.237Z,100053.63
2022-12-22T14:58:22.808Z,100071.00
2022-12-22T15:00:33.055Z,100071.00
2022-12-22T15:02:39.916Z,100072.72
2022-12-22T15:04:43.258Z,100064.91
2022-12-22T15:06:48.009Z,100067.50
2022-12-22T15:08:52.617Z,100070.97
2022-12-22T15:10:55.397Z,100072.63
2022-12-22T15:13:01.089Z,100071.72
2022-12-22T15:15:12.528Z,100068.25
2022-12-22T15:17:21.962Z,100072.56
2022-12-22T15:19:25.062Z,100067.34
2022-12-22T15:21:27.924Z,100062.16
2022-12-22T15:23:31.033Z,100069.09
2022-12-22T15:25:33.991Z,100071.66
2022-12-22T15:27:36.790Z,100068.16
2022-12-22T15:29:40.037Z,100064.66
2022-12-22T15:31:44.668Z,100075.06
2022-12-22T15:33:47.555Z,100079.38
2022-12-22T15:35:50.466Z,100069.78
2022-12-22T15:37:53.787Z,100080.19
2022-12-22T15:40:16.031Z,100074.06
2022-12-22T15:42:18.843Z,100075.75
2022-12-22T15:44:22.437Z,100070.56
2022-12-22T15:46:25.456Z,100069.69
2022-12-22T15:48:33.034Z,100060.16
2022-12-22T15:50:40.606Z,100065.31
2022-12-22T15:52:48.412Z,100063.56
2022-12-22T15:54:51.298Z,100064.44
2022-12-22T15:56:55.828Z,100061.84
2022-12-22T15:58:58.845Z,100069.66
2022-12-22T16:01:01.805Z,100064.47
2022-12-22T16:03:05.374Z,100057.53
2022-12-22T16:05:11.581Z,100061.00
2022-12-22T16:07:14.537Z,100056.69
2022-12-22T16:09:21.813Z,100061.94
2022-12-22T16:11:24.747Z,100055.03
2022-12-22T16:13:29.648Z,100048.91
2022-12-22T16:15:34.610Z,100053.28
2022-12-22T16:17:38.715Z,100049.81
2022-12-22T16:19:41.545Z,100055.03
2022-12-22T16:21:48.781Z,100037.66
2022-12-22T16:23:52.009Z,100043.72
2022-12-22T16:26:01.665Z,100044.59
2022-12-22T16:28:06.895Z,100036.72
2022-12-22T16:30:16.446Z,100042.81
2022-12-22T16:32:25.031Z,100038.44
2022-12-22T16:34:27.808Z,100036.69
2022-12-22T16:36:30.664Z,100030.66
2022-12-22T16:38:35.719Z,100024.63
2022-12-22T16:40:43.896Z,100032.44
2022-12-22T16:45:19.201Z,100021.19
2022-12-22T16:47:25.249Z,100018.59
2022-12-22T16:49:28.026Z,100019.44
2022-12-22T16:51:34.582Z,100021.19
2022-12-22T16:53:38.822Z,100018.59
2022-12-22T16:55:42.283Z,100024.63
2022-12-22T16:57:45.839Z,100026.31
2022-12-22T16:59:48.628Z,100027.19
2022-12-22T17:01:54.682Z,100019.41
2022-12-22T17:03:58.830Z,100019.34
2022-12-22T17:06:03.549Z,100015.00
2022-12-22T17:08:07.375Z,100018.44
2022-12-22T17:10:15.824Z,100016.72
2022-12-22T17:12:21.068Z,100015.00
2022-12-22T17:14:29.865Z,100020.22
2022-12-22T17:16:32.822Z,100016.69
2022-12-22T17:18:36.413Z,100008.88
2022-12-22T17:20:39.279Z,100003.69
2022-12-22T17:22:44.274Z,100002.00
2022-12-22T17:24:47.129Z,99999.41
2022-12-22T17:26:52.008Z,99992.47
2022-12-22T17:28:54.700Z,99997.63
2022-12-22T17:30:57.662Z,99998.50
2022-12-22T17:33:00.528Z,100000.28
2022-12-22T17:35:03.492Z,99988.13
2022-12-22T17:37:13.625Z,99989.88
2022-12-22T17:39:19.555Z,99989.00
2022-12-22T17:41:22.386Z,99981.22
2022-12-22T17:43:26.619Z,99978.63
2022-12-22T17:45:29.545Z,99982.03
2022-12-22T17:47:40.440Z,99974.25
2022-12-22T17:49:46.073Z,99971.63
2022-12-22T17:51:49.463Z,99974.22
2022-12-22T17:53:53.357Z,99963.84
2022-12-22T17:56:11.671Z,99966.47
2022-12-22T17:58:16.435Z,99964.72
2022-12-22T18:00:24.466Z,99956.91
2022-12-22T18:02:27.958Z,99954.31
2022-12-22T18:04:30.904Z,99955.22
2022-12-22T18:06:36.480Z,99945.69
2022-12-22T18:08:39.419Z,99946.53
2022-12-22T18:10:42.724Z,99940.44
2022-12-22T18:12:45.693Z,99933.50
2022-12-22T18:14:49.739Z,99930.91
2022-12-22T18:16:54.451Z,99920.50
2022-12-22T18:18:57.198Z,99926.59
2022-12-22T18:21:06.586Z,99927.44
2022-12-22T18:23:16.860Z,99923.94
2022-12-22T18:25:22.629Z,99924.88
2022-12-22T18:27:25.545Z,99922.25
2022-12-22T18:29:28.449Z,99917.03
2022-12-22T18:31:31.364Z,99910.16
2022-12-22T18:33:35.618Z,99911.84
2022-12-22T18:35:39.623Z,99908.34
2022-12-22T18:37:42.974Z,99907.47
2022-12-22T18:39:46.062Z,99910.09
2022-12-22T18:41:49.267Z,99914.44
2022-12-22T18:43:52.637Z,99898.00
2022-12-22T18:45:55.415Z,99905.78
2022-12-22T18:47:58.636Z,99896.22
2022-12-22T18:50:05.410Z,99898.84
2022-12-22T18:52:18.369Z,99886.72
2022-12-22T18:54:29.902Z,99897.94
2022-12-22T18:56:33.587Z,99897.94
2022-12-22T18:58:36.500Z,99888.44
2022-12-22T19:00:39.293Z,99901.44
2022-12-22T19:02:42.855Z,99888.38
2022-12-22T19:04:45.830Z,99884.94
2022-12-22T19:06:49.985Z,99887.53
2022-12-22T19:08:52.907Z,99898.00
2022-12-22T19:10:57.951Z,99896.22
2022-12-22T19:13:01.400Z,99887.59
2022-12-22T19:15:06.959Z,99885.84
2022-12-22T19:17:15.086Z,99878.91
2022-12-22T19:19:19.376Z,99889.28
2022-12-22T19:21:22.488Z,99878.03
2022-12-22T19:23:27.222Z,99878.00
2022-12-22T19:25:32.672Z,99871.06
2022-12-22T19:27:35.556Z,99868.47
2022-12-22T19:29:38.493Z,99876.28
2022-12-22T19:31:41.906Z,99867.63
2022-12-22T19:33:45.034Z,99863.25
2022-12-22T19:35:48.083Z,99881.44
2022-12-22T19:37:53.029Z,99870.19
2022-12-22T19:39:57.338Z,99867.56
2022-12-22T19:42:00.669Z,99866.72
2022-12-22T19:44:03.717Z,99858.00
2022-12-22T19:46:06.799Z,99851.09
2022-12-22T19:48:18.558Z,99851.13
2022-12-22T19:50:24.244Z,99845.91
2022-12-22T19:52:27.298Z,99838.09
2022-12-22T19:54:32.295Z,99838.13
2022-12-22T19:56:36.683Z,99838.97
2022-12-22T19:58:41.629Z,99835.50
2022-12-22T20:00:44.971Z,99822.50
2022-12-22T20:02:53.099Z,99831.13
2022-12-22T20:04:57.095Z,99825.03
2022-12-22T20:07:00.252Z,99823.25
2022-12-22T20:09:03.263Z,99820.66
2022-12-22T20:11:13.648Z,99817.25
2022-12-22T20:13:21.633Z,99819.00
2022-12-22T20:15:27.374Z,99812.94
2022-12-22T20:17:30.180Z,99817.28
2022-12-22T20:19:33.047Z,99813.78
2022-12-22T20:21:36.230Z,99811.22
2022-12-22T20:23:40.213Z,99812.09
2022-12-22T20:25:46.200Z,99813.84
2022-12-22T20:27:49.982Z,99797.34
2022-12-22T20:29:54.283Z,99790.41
2022-12-22T20:31:57.170Z,99789.56
2022-12-22T20:34:01.247Z,99791.31
2022-12-22T20:36:13.119Z,99786.09
2022-12-22T20:38:20.088Z,99788.69
2022-12-22T20:40:25.980Z,99778.31
2022-12-22T20:42:28.797Z,99778.28
2022-12-22T20:44:31.735Z,99779.16
2022-12-22T20:46:36.112Z,99773.09
2022-12-22T20:48:41.238Z,99780.00
2022-12-22T20:50:44.059Z,99773.09
2022-12-22T20:52:46.853Z,99777.41
2022-12-22T20:54:49.937Z,99777.41
2022-12-22T20:56:52.707Z,99773.09
2022-12-22T20:58:55.812Z,99770.50
2022-12-22T21:01:00.991Z,99763.56
2022-12-22T21:03:05.299Z,99759.22
2022-12-22T21:05:09.086Z,99752.31
2022-12-22T21:07:11.836Z,99756.66
2022-12-22T21:09:16.056Z,99751.47
2022-12-22T21:11:19.011Z,99746.25
2022-12-22T21:13:22.944Z,99751.47
2022-12-22T21:15:28.628Z,99747.97
2022-12-22T21:17:31.424Z,99740.16
2022-12-22T21:19:35.579Z,99743.63
2022-12-22T21:21:38.411Z,99727.16
2022-12-22T21:23:41.284Z,99723.72
2022-12-22T21:25:46.770Z,99728.91
2022-12-22T21:27:52.651Z,99727.16
2022-12-22T21:29:55.480Z,99729.78
2022-12-22T21:31:58.368Z,99719.38
2022-12-22T21:34:01.216Z,99720.22
2022-12-22T21:36:06.107Z,99723.72
2022-12-22T21:38:08.897Z,99717.63
2022-12-22T21:40:19.316Z,99716.72
2022-12-22T21:42:22.217Z,99713.25
2022-12-22T21:44:25.021Z,99701.16
2022-12-22T21:46:27.969Z,99700.28
2022-12-22T21:48:30.930Z,99689.88
2022-12-22T21:50:35.238Z,99688.13
2022-12-22T21:52:40.110Z,99678.63
2022-12-22T21:54:42.928Z,99676.88
2022-12-22T21:56:46.203Z,99668.22
2022-12-22T21:58:49.054Z,99662.19
2022-12-22T22:00:51.824Z,99669.09
2022-12-22T22:02:56.011Z,99657.84
2022-12-22T22:04:58.987Z,99661.28
2022-12-22T22:07:01.756Z,99656.13
2022-12-22T22:09:07.131Z,99654.38
2022-12-22T22:11:18.203Z,99656.13
2022-12-22T22:13:20.967Z,99650.03
2022-12-22T22:15:26.141Z,99647.44
2022-12-22T22:17:28.936Z,99650.91
2022-12-22T22:19:31.731Z,99645.69
2022-12-22T22:21:34.462Z,99650.91
2022-12-22T22:23:37.540Z,99640.50
2022-12-22T22:25:41.963Z,99648.28
2022-12-22T22:27:47.953Z,99649.16
2022-12-22T22:29:51.133Z,99645.69
2022-12-22T22:31:53.935Z,99649.19
2022-12-22T22:33:56.700Z,99650.03
2022-12-22T22:36:06.182Z,99654.38
2022-12-22T22:38:11.685Z,99657.84
2022-12-22T22:40:16.072Z,99647.44
2022-12-22T22:42:20.200Z,99651.78
2022-12-22T22:44:23.245Z,99660.44
2022-12-22T22:46:26.203Z,99654.38
2022-12-22T22:48:29.039Z,99663.03
2022-12-22T22:50:32.012Z,99657.84
2022-12-22T22:52:35.056Z,99650.91
2022-12-22T22:54:37.869Z,99649.19
2022-12-22T22:56:40.851Z,99650.03
2022-12-22T22:58:45.163Z,99650.91
2022-12-22T23:00:47.978Z,99640.50
2022-12-22T23:02:50.928Z,99638.78
2022-12-22T23:04:53.760Z,99637.03
2022-12-22T23:06:56.563Z,99631.00
2022-12-22T23:08:59.424Z,99614.53
2022-12-22T23:11:03.020Z,99617.97
2022-12-22T23:13:05.739Z,99610.19
2022-12-22T23:15:10.821Z,99608.44
2022-12-22T23:17:13.841Z,99616.25
2022-12-22T23:19:17.234Z,99597.19
2022-12-22T23:21:20.745Z,99606.72
2022-12-22T23:23:23.641Z,99592.88
2022-12-22T23:25:26.439Z,99579.00
2022-12-22T23:27:29.250Z,99577.28
2022-12-22T23:29:32.051Z,99581.63
2022-12-22T23:31:36.339Z,99572.94
2022-12-22T23:33:39.699Z,99578.13
2022-12-22T23:35:43.282Z,99572.94
2022-12-22T23:37:46.066Z,99568.63
2022-12-22T23:39:48.888Z,99568.63
2022-12-22T23:41:51.621Z,99569.47
2022-12-22T23:43:55.067Z,99559.06
2022-12-22T23:45:57.868Z,99562.53
2022-12-22T23:48:02.117Z,99553.03
2022-12-22T23:50:05.317Z,99545.19
2022-12-22T23:52:08.045Z,99555.59
2022-12-22T23:54:10.870Z,99552.16
2022-12-22T23:56:13.662Z,99556.50
2022-12-22T23:58:17.314Z,99543.47
